Time;durP1;ratioP1;P1;durP2;ratioP2;P2;SDS_P1;SDS_P2;PMS_P1;PMS_P2;Temp;Humidity;BMP_temperature;BMP_pressure;BME280_temperature;BME280_humidity;BME280_pressure;Samples;Min_cycle;Max_cycle;Signal;HPM_P1;HPM_P2
2023/03/06 00:01:47;;;;;;;6.55;3.28;;;4.00;99.90;;;;;;5141107;28;20048;-66
2023/03/06 00:04:20;;;;;;;8.07;3.97;;;4.00;99.90;;;;;;5158303;28;20134;-69
2023/03/06 00:06:54;;;;;;;5.93;3.03;;;4.00;99.90;;;;;;5152199;28;20042;-69
2023/03/06 00:09:31;;;;;;;7.15;3.20;;;4.00;99.90;;;;;;5134099;28;20042;-68
2023/03/06 00:12:07;;;;;;;6.70;2.90;;;4.00;99.90;;;;;;5136347;28;20065;-69
2023/03/06 00:14:44;;;;;;;4.93;2.97;;;4.00;99.90;;;;;;5132181;28;20084;-69
2023/03/06 00:17:18;;;;;;;7.32;2.63;;;3.90;99.90;;;;;;5176754;28;20031;-68
2023/03/06 00:19:52;;;;;;;6.57;3.05;;;4.00;99.90;;;;;;5135024;28;20038;-68
2023/03/06 00:22:25;;;;;;;6.85;3.38;;;3.90;99.90;;;;;;5170405;28;20046;-69
2023/03/06 00:24:57;;;;;;;5.25;3.10;;;3.90;99.90;;;;;;5121671;28;20049;-69
2023/03/06 00:27:30;;;;;;;5.53;2.67;;;3.90;99.90;;;;;;5136840;28;20042;-68
2023/03/06 00:30:05;;;;;;;7.20;2.63;;;3.90;99.90;;;;;;5148193;28;20520;-68
2023/03/06 00:32:38;;;;;;;5.20;2.75;;;3.90;99.90;;;;;;5149456;28;20042;-69
2023/03/06 00:35:14;;;;;;;4.05;2.65;;;3.90;99.90;;;;;;5151140;28;20042;-66
2023/03/06 00:37:51;;;;;;;3.60;2.17;;;3.90;99.90;;;;;;5135021;28;20042;-68
2023/03/06 00:40:22;;;;;;;8.35;3.05;;;3.90;99.90;;;;;;5151299;28;20034;-69
2023/03/06 00:42:54;;;;;;;6.20;2.47;;;3.90;99.90;;;;;;5150247;28;20046;-68
2023/03/06 00:45:28;;;;;;;4.72;2.63;;;3.90;99.90;;;;;;5148239;28;20049;-68
2023/03/06 00:48:02;;;;;;;4.10;2.47;;;3.90;99.90;;;;;;5134866;28;20038;-69
2023/03/06 00:50:34;;;;;;;5.10;2.15;;;3.90;99.90;;;;;;5149012;28;20042;-68
2023/03/06 00:53:09;;;;;;;4.15;2.17;;;3.80;99.90;;;;;;5134779;28;20050;-67
2023/03/06 00:55:45;;;;;;;4.95;2.20;;;3.80;99.90;;;;;;5151686;28;20030;-66
2023/03/06 00:58:17;;;;;;;3.35;1.83;;;3.80;99.90;;;;;;5151191;28;20037;-68
2023/03/06 01:00:52;;;;;;;2.78;2.03;;;3.80;99.90;;;;;;5119142;28;20046;-69
2023/03/06 01:03:24;;;;;;;3.65;2.00;;;3.80;99.90;;;;;;5158252;23;20061;-92
2023/03/06 01:05:58;;;;;;;4.28;2.45;;;3.80;99.90;;;;;;5146992;28;20043;-92
2023/03/06 01:08:34;;;;;;;5.53;2.20;;;3.80;99.90;;;;;;5138457;29;20039;-91
2023/03/06 01:11:07;;;;;;;4.45;2.92;;;3.70;99.90;;;;;;5154320;28;20043;-91
2023/03/06 01:13:44;;;;;;;4.95;2.25;;;3.70;99.90;;;;;;5154578;28;20045;-91
2023/03/06 01:16:20;;;;;;;4.55;2.35;;;3.70;99.90;;;;;;5154577;28;20313;-91
2023/03/06 01:18:51;;;;;;;4.53;2.70;;;3.80;99.90;;;;;;5153941;28;20043;-92
2023/03/06 01:21:28;;;;;;;4.15;2.28;;;3.70;99.90;;;;;;5153049;28;20319;-90
2023/03/06 01:23:59;;;;;;;3.45;2.25;;;3.70;99.90;;;;;;5153282;28;20045;-92
2023/03/06 01:26:32;;;;;;;2.50;1.83;;;3.70;99.90;;;;;;5153775;28;20042;-90
2023/03/06 01:29:08;;;;;;;5.28;2.83;;;3.70;99.90;;;;;;5154091;28;20039;-90
2023/03/06 01:31:43;;;;;;;3.08;1.85;;;3.70;99.90;;;;;;5152755;28;20046;-90
2023/03/06 01:34:14;;;;;;;3.47;2.10;;;3.70;99.90;;;;;;5154896;28;20043;-90
2023/03/06 01:36:49;;;;;;;3.30;2.30;;;3.70;99.90;;;;;;5153506;28;20027;-91
2023/03/06 01:39:25;;;;;;;3.95;1.88;;;3.70;99.90;;;;;;5153120;28;20057;-90
2023/03/06 01:41:59;;;;;;;2.80;2.03;;;3.70;99.90;;;;;;5153661;28;20042;-91
2023/03/06 01:44:37;;;;;;;3.25;1.83;;;3.70;99.90;;;;;;5152805;28;20035;-91
2023/03/06 01:47:11;;;;;;;4.72;2.22;;;3.70;99.90;;;;;;5153931;28;20039;-90
2023/03/06 01:49:42;;;;;;;5.50;2.10;;;3.70;99.90;;;;;;5153526;28;20224;-90
2023/03/06 01:52:22;;;;;;;5.53;1.65;;;3.70;99.90;;;;;;5153057;28;20038;-91
2023/03/06 01:55:19;;;;;;;2.92;2.20;;;3.70;99.90;;;;;;5152968;28;20049;-92
2023/03/06 01:57:57;;;;;;;2.72;2.00;;;3.70;99.90;;;;;;5151178;28;20039;-92
2023/03/06 02:00:30;;;;;;;2.72;1.67;;;3.70;99.90;;;;;;5153968;28;20339;-91
2023/03/06 02:03:25;;;;;;;3.55;2.03;;;3.70;99.90;;;;;;5153939;28;20057;-91
2023/03/06 02:06:01;;;;;;;4.53;2.00;;;3.70;99.90;;;;;;5143960;28;20202;-91
2023/03/06 02:08:37;;;;;;;3.35;2.15;;;3.70;99.90;;;;;;5137491;29;20035;-92
2023/03/06 02:11:47;;;;;;;;;;;;;;;;;;;;;
2023/03/06 02:14:28;;;;;;;3.50;2.00;;;3.70;99.90;;;;;;5182476;28;20042;-93
2023/03/06 02:17:06;;;;;;;4.03;2.38;;;3.70;99.90;;;;;;5160372;28;20061;-91
2023/03/06 02:19:56;;;;;;;2.60;2.00;;;3.70;99.90;;;;;;5153771;28;20039;-90
2023/03/06 02:22:42;;;;;;;3.13;1.85;;;3.70;99.90;;;;;;5153743;28;20317;-91
2023/03/06 02:25:41;;;;;;;6.22;2.42;;;3.70;99.90;;;;;;5152839;28;20045;-91
2023/03/06 02:28:19;;;;;;;4.03;2.10;;;3.70;99.90;;;;;;5153256;28;20039;-91
2023/03/06 02:31:04;;;;;;;2.17;1.63;;;3.70;99.90;;;;;;5168294;28;20049;-91
2023/03/06 02:33:38;;;;;;;2.35;1.35;;;3.60;99.90;;;;;;5154338;28;20039;-90
2023/03/06 02:36:13;;;;;;;4.18;1.92;;;3.60;99.90;;;;;;5154942;28;20145;-92
2023/03/06 02:39:00;;;;;;;3.08;2.10;;;3.60;99.90;;;;;;5138532;28;20043;-93
2023/03/06 02:41:36;;;;;;;3.53;1.90;;;3.60;99.90;;;;;;5155809;28;20329;-90
2023/03/06 02:44:10;;;;;;;4.60;2.35;;;3.60;99.90;;;;;;5143263;29;20039;-93
2023/03/06 02:46:43;;;;;;;2.72;2.08;;;3.60;99.90;;;;;;5142522;28;20047;-91
2023/03/06 02:49:17;;;;;;;6.03;2.10;;;3.60;99.90;;;;;;5159967;28;20039;-91
2023/03/06 02:55:39;;;;;;;2.30;1.70;;;3.70;99.90;;;;;;5181691;28;20042;-92
2023/03/06 02:58:18;;;;;;;4.35;2.20;;;3.60;99.90;;;;;;5196364;23;20038;-67
2023/03/06 03:00:52;;;;;;;6.60;2.05;;;3.70;99.90;;;;;;5188256;28;20069;-68
2023/03/06 03:03:23;;;;;;;2.72;1.50;;;3.60;99.90;;;;;;5155254;28;20058;-69
2023/03/06 03:06:05;;;;;;;4.18;1.98;;;3.60;99.90;;;;;;5151323;28;20362;-69
2023/03/06 03:08:37;;;;;;;3.25;2.13;;;3.60;99.90;;;;;;5181049;28;20045;-65
2023/03/06 03:11:08;;;;;;;3.10;2.40;;;3.60;99.90;;;;;;5150886;28;20046;-68
2023/03/06 03:13:45;;;;;;;3.08;1.80;;;3.60;99.90;;;;;;5145084;28;20038;-70
2023/03/06 03:16:19;;;;;;;3.13;1.92;;;3.50;99.90;;;;;;5149895;28;20052;-67
2023/03/06 03:18:53;;;;;;;5.15;1.90;;;3.50;99.90;;;;;;5136677;28;20047;-69
2023/03/06 03:21:25;;;;;;;;;;;3.50;99.90;;;;;;5137093;28;20038;-69
2023/03/06 03:24:02;;;;;;;4.80;2.10;;;3.40;99.90;;;;;;5136651;28;19909;-71
2023/03/06 03:26:36;;;;;;;2.00;1.58;;;3.40;99.90;;;;;;5170644;28;20045;-68
2023/03/06 03:29:09;;;;;;;;;;;3.40;99.90;;;;;;5157944;28;20061;-69
2023/03/06 03:31:40;;;;;;;3.20;1.90;;;3.30;99.90;;;;;;5170988;28;19943;-69
2023/03/06 03:34:12;;;;;;;3.15;1.75;;;3.30;99.90;;;;;;5140343;28;20034;-68
2023/03/06 03:36:48;;;;;;;5.00;2.45;;;3.20;99.90;;;;;;5174874;28;20032;-68
2023/03/06 03:39:20;;;;;;;2.65;1.60;;;3.20;99.90;;;;;;5174671;28;20040;-68
2023/03/06 03:41:51;;;;;;;4.18;1.70;;;3.10;99.90;;;;;;5171120;28;20366;-68
2023/03/06 03:44:27;;;;;;;3.40;1.80;;;3.10;99.90;;;;;;5165343;28;20026;-69
2023/03/06 03:47:02;;;;;;;3.60;2.42;;;3.00;99.90;;;;;;5147369;28;20045;-67
2023/03/06 03:49:33;;;;;;;;;;;3.00;99.90;;;;;;5157383;28;20048;-69
2023/03/06 03:52:08;;;;;;;4.97;2.20;;;2.90;99.90;;;;;;5180309;28;19910;-67
2023/03/06 03:54:41;;;;;;;3.78;1.90;;;2.90;99.90;;;;;;5165694;28;20025;-68
2023/03/06 03:57:15;;;;;;;4.20;2.25;;;2.80;99.90;;;;;;5155138;28;20247;-69
2023/03/06 03:59:46;;;;;;;3.42;2.35;;;2.70;99.90;;;;;;5158106;28;20042;-70
2023/03/06 04:02:20;;;;;;;3.60;2.00;;;2.70;99.90;;;;;;5133683;28;20524;-67
2023/03/06 04:04:52;;;;;;;5.05;2.97;;;2.70;99.90;;;;;;5131751;28;20053;-68
2023/03/06 04:07:29;;;;;;;4.32;2.20;;;2.60;99.90;;;;;;5148541;28;20211;-68
2023/03/06 04:10:07;;;;;;;7.45;3.25;;;2.50;99.90;;;;;;5162758;28;20052;-65
2023/03/06 04:12:39;;;;;;;4.18;2.20;;;2.50;99.90;;;;;;5173300;28;20367;-67
2023/03/06 04:15:11;;;;;;;4.50;2.80;;;2.40;99.90;;;;;;5154521;28;20046;-67
2023/03/06 04:17:45;;;;;;;5.72;3.15;;;2.40;99.90;;;;;;5141551;28;20045;-68
2023/03/06 04:20:19;;;;;;;5.78;2.35;;;2.40;99.90;;;;;;5140134;28;20042;-67
2023/03/06 04:22:53;;;;;;;;;;;2.30;99.90;;;;;;5141069;28;20046;-69
2023/03/06 04:25:25;;;;;;;5.10;3.13;;;2.40;99.90;;;;;;5141334;28;19915;-69
2023/03/06 04:27:56;;;;;;;3.88;2.60;;;2.40;99.90;;;;;;5169859;28;20032;-68
2023/03/06 04:30:28;;;;;;;5.57;3.17;;;2.30;99.90;;;;;;5135251;28;20030;-69
2023/03/06 04:33:02;;;;;;;8.15;3.22;;;2.40;99.90;;;;;;5132959;28;20046;-66
2023/03/06 04:35:37;;;;;;;9.07;4.43;;;2.40;99.90;;;;;;5151993;28;20272;-67
2023/03/06 04:38:09;;;;;;;7.65;3.40;;;2.40;99.90;;;;;;5125768;28;20046;-66
2023/03/06 04:40:43;;;;;;;5.43;3.08;;;2.40;99.90;;;;;;5120325;28;20610;-69
2023/03/06 04:43:17;;;;;;;8.60;2.92;;;2.40;99.90;;;;;;5155177;28;20046;-67
2023/03/06 04:45:51;;;;;;;;;;;2.50;99.90;;;;;;5151743;28;20354;-68
2023/03/06 04:48:26;;;;;;;6.32;3.35;;;2.50;99.90;;;;;;5121216;28;19909;-68
2023/03/06 04:51:00;;;;;;;6.00;3.30;;;2.50;99.90;;;;;;5153355;28;20046;-70
2023/03/06 04:53:32;;;;;;;7.45;3.25;;;2.50;99.90;;;;;;5181119;28;20029;-69
2023/03/06 04:56:07;;;;;;;9.95;3.08;;;2.50;99.90;;;;;;5177517;28;20033;-68
2023/03/06 04:58:38;;;;;;;7.75;3.75;;;2.40;99.90;;;;;;5139776;28;20048;-68
2023/03/06 05:01:13;;;;;;;6.00;3.08;;;2.50;99.90;;;;;;5147670;28;20042;-68
2023/03/06 05:03:48;;;;;;;9.27;3.58;;;2.60;99.90;;;;;;5147934;28;20057;-67
2023/03/06 05:06:20;;;;;;;6.60;3.08;;;2.50;99.90;;;;;;5129921;28;20057;-68
2023/03/06 05:08:54;;;;;;;6.22;3.53;;;2.50;99.90;;;;;;5140279;28;20075;-68
2023/03/06 05:11:26;;;;;;;7.65;2.83;;;2.50;99.90;;;;;;5136513;28;20593;-67
2023/03/06 05:14:00;;;;;;;7.55;3.13;;;2.40;99.90;;;;;;5157200;28;20026;-68
2023/03/06 05:16:36;;;;;;;7.70;3.33;;;2.40;99.90;;;;;;5150549;28;20355;-67
2023/03/06 05:19:08;;;;;;;6.97;3.53;;;2.50;99.90;;;;;;5152030;28;20073;-69
2023/03/06 05:21:40;;;;;;;9.25;3.80;;;2.50;99.90;;;;;;5141121;28;20052;-68
2023/03/06 05:24:14;;;;;;;7.90;3.80;;;2.50;99.90;;;;;;5176004;28;20429;-69
2023/03/06 05:26:48;;;;;;;5.95;3.30;;;2.50;99.90;;;;;;5190251;28;20058;-68
2023/03/06 05:29:25;;;;;;;7.85;4.20;;;2.50;99.90;;;;;;5173342;28;20049;-68
2023/03/06 05:31:56;;;;;;;7.25;3.60;;;2.60;99.90;;;;;;5169781;28;20038;-68
2023/03/06 05:34:27;;;;;;;6.15;2.95;;;2.60;99.90;;;;;;5155461;28;20397;-69
2023/03/06 05:37:02;;;;;;;9.25;3.72;;;2.60;99.90;;;;;;5169112;28;20056;-69
2023/03/06 05:39:36;;;;;;;7.03;3.80;;;2.70;99.90;;;;;;5136392;28;20038;-69
2023/03/06 05:42:08;;;;;;;7.40;3.63;;;2.70;99.90;;;;;;5141355;28;20548;-66
2023/03/06 05:44:40;;;;;;;7.60;4.07;;;2.70;99.90;;;;;;5153864;28;20206;-69
2023/03/06 05:47:14;;;;;;;10.18;4.40;;;2.90;99.90;;;;;;5163360;28;20038;-68
2023/03/06 05:49:56;;;;;;;9.65;4.05;;;2.90;99.90;;;;;;5170516;28;20050;-67
2023/03/06 05:52:36;;;;;;;8.60;3.97;;;3.00;99.90;;;;;;5145812;28;20042;-68
2023/03/06 05:55:19;;;;;;;11.20;4.10;;;3.00;99.90;;;;;;5159971;28;20045;-68
2023/03/06 05:57:52;;;;;;;7.43;4.20;;;3.10;99.90;;;;;;5136438;28;20054;-68
2023/03/06 06:00:27;;;;;;;7.35;4.25;;;3.20;99.90;;;;;;5169597;28;20908;-68
2023/03/06 06:03:01;;;;;;;8.50;4.72;;;3.20;99.90;;;;;;5160595;28;20230;-68
2023/03/06 06:05:35;;;;;;;8.48;4.68;;;3.30;99.90;;;;;;5160031;28;20049;-66
2023/03/06 06:08:06;;;;;;;11.85;4.40;;;3.30;99.90;;;;;;5169099;28;20603;-66
2023/03/06 06:10:41;;;;;;;10.32;3.63;;;3.30;99.90;;;;;;5154930;28;20034;-68
2023/03/06 06:13:15;;;;;;;7.57;3.88;;;3.30;99.90;;;;;;5140417;28;20071;-69
2023/03/06 06:15:51;;;;;;;7.15;4.15;;;3.40;99.90;;;;;;5160483;28;20026;-69
2023/03/06 06:18:28;;;;;;;17.58;4.65;;;3.50;99.90;;;;;;5142094;28;20038;-69
2023/03/06 06:21:06;;;;;;;9.07;4.47;;;3.60;99.90;;;;;;5149907;28;20056;-69
2023/03/06 06:23:45;;;;;;;8.57;3.88;;;3.60;99.90;;;;;;5170260;28;20048;-69
2023/03/06 06:26:16;;;;;;;10.00;4.30;;;3.60;99.90;;;;;;5166092;28;20046;-68
2023/03/06 06:28:49;;;;;;;7.55;4.63;;;3.60;99.90;;;;;;5158992;28;20040;-67
2023/03/06 06:31:21;;;;;;;14.00;4.68;;;3.70;99.90;;;;;;5150070;28;20032;-69
2023/03/06 06:33:58;;;;;;;7.63;4.68;;;3.70;99.90;;;;;;5171618;28;20362;-69
2023/03/06 06:36:31;;;;;;;8.07;4.93;;;3.60;99.90;;;;;;5138548;28;20064;-67
2023/03/06 06:39:08;;;;;;;7.47;4.30;;;3.70;99.90;;;;;;5137770;28;20441;-67
2023/03/06 06:41:40;;;;;;;9.18;4.55;;;3.70;99.90;;;;;;5170264;28;20222;-66
2023/03/06 06:44:19;;;;;;;8.32;5.20;;;3.80;99.90;;;;;;5149316;28;20286;-68
2023/03/06 06:46:51;;;;;;;10.25;4.53;;;3.90;99.90;;;;;;5163739;28;20029;-68
2023/03/06 06:49:22;;;;;;;9.68;5.25;;;4.00;99.90;;;;;;5150701;28;20359;-69
2023/03/06 06:51:56;;;;;;;9.38;4.50;;;4.20;99.90;;;;;;5158215;28;20060;-68
2023/03/06 06:54:31;;;;;;;10.18;4.72;;;4.30;99.90;;;;;;5143733;28;20207;-68
2023/03/06 06:57:03;;;;;;;;;;;4.50;99.90;;;;;;5149392;28;20216;-67
2023/03/06 06:59:35;;;;;;;7.20;4.50;;;4.60;99.90;;;;;;5101407;28;20151;-66
2023/03/06 07:02:07;;;;;;;8.52;5.28;;;4.60;99.90;;;;;;5120452;28;20223;-69
2023/03/06 07:04:39;;;;;;;10.80;5.55;;;4.60;99.90;;;;;;5167669;28;20089;-68
2023/03/06 07:07:16;;;;;;;14.18;5.72;;;4.70;99.90;;;;;;5169180;28;20246;-68
2023/03/06 07:09:47;;;;;;;11.63;5.43;;;4.80;99.90;;;;;;5155318;28;20046;-64
2023/03/06 07:12:22;;;;;;;8.98;5.35;;;4.80;99.90;;;;;;5168348;28;20046;-67
2023/03/06 07:14:58;;;;;;;9.27;4.97;;;4.80;99.90;;;;;;5118013;28;20041;-68
2023/03/06 07:17:29;;;;;;;11.40;5.45;;;5.00;99.90;;;;;;5150306;28;20060;-68
2023/03/06 07:20:05;;;;;;;15.48;6.63;;;5.10;99.90;;;;;;5165214;28;20309;-68
2023/03/06 07:22:37;;;;;;;9.25;5.32;;;5.20;99.90;;;;;;5166047;28;20034;-67
2023/03/06 07:25:11;;;;;;;11.77;5.35;;;5.30;99.90;;;;;;5167763;28;20034;-65
2023/03/06 07:27:45;;;;;;;11.35;5.47;;;5.30;99.90;;;;;;5169975;28;20044;-67
2023/03/06 07:30:17;;;;;;;13.45;5.45;;;5.10;99.90;;;;;;5152550;28;20379;-67
2023/03/06 07:32:56;;;;;;;9.05;5.53;;;5.10;99.90;;;;;;5136731;28;20030;-68
2023/03/06 07:35:28;;;;;;;10.70;5.18;;;5.20;99.90;;;;;;5136895;28;20555;-67
2023/03/06 07:38:02;;;;;;;13.50;5.75;;;5.20;99.90;;;;;;5151619;28;20223;-69
2023/03/06 07:40:34;;;;;;;10.85;5.22;;;5.30;99.90;;;;;;5146376;28;20255;-67
2023/03/06 07:43:06;;;;;;;9.35;5.00;;;5.20;99.90;;;;;;5172868;28;20133;-69
2023/03/06 07:45:37;;;;;;;12.65;4.97;;;5.40;99.90;;;;;;5137761;28;20052;-68
2023/03/06 07:48:16;;;;;;;12.27;5.53;;;5.50;99.90;;;;;;5172937;28;20030;-68
2023/03/06 07:51:00;;;;;;;16.20;6.88;;;5.70;99.90;;;;;;5137227;28;20212;-68
2023/03/06 07:53:32;;;;;;;48.45;19.05;;;5.80;99.90;;;;;;5144039;28;20222;-66
2023/03/06 07:56:07;;;;;;;28.50;13.68;;;5.70;99.90;;;;;;5153204;28;20300;-68
2023/03/06 07:58:48;;;;;;;11.15;4.80;;;5.70;99.90;;;;;;5171609;28;20063;-66
2023/03/06 08:01:22;;;;;;;9.20;5.03;;;5.50;99.90;;;;;;5165902;28;20341;-69
2023/03/06 08:03:54;;;;;;;10.77;5.55;;;5.30;99.90;;;;;;5149721;28;20420;-67
2023/03/06 08:06:31;;;;;;;9.68;5.50;;;5.50;99.90;;;;;;5111565;28;20048;-71
2023/03/06 08:09:06;;;;;;;7.97;4.50;;;5.50;99.90;;;;;;5171673;28;20036;-68
2023/03/06 08:11:37;;;;;;;;;;;5.50;99.90;;;;;;5145193;28;20618;-68
2023/03/06 08:14:08;;;;;;;10.30;4.25;;;5.50;99.90;;;;;;5151264;28;19919;-69
2023/03/06 08:16:40;;;;;;;10.65;5.20;;;5.60;99.90;;;;;;5170344;28;20245;-66
2023/03/06 08:19:12;;;;;;;9.00;5.55;;;5.70;99.90;;;;;;5139115;28;20037;-67
2023/03/06 08:21:45;;;;;;;12.75;5.93;;;5.70;99.90;;;;;;5172920;28;20346;-67
2023/03/06 08:24:19;;;;;;;7.93;4.50;;;5.50;99.90;;;;;;5140512;28;20440;-67
2023/03/06 08:26:51;;;;;;;7.93;4.95;;;5.70;99.90;;;;;;5140077;28;20036;-68
2023/03/06 08:29:22;;;;;;;11.13;4.38;;;5.80;99.90;;;;;;5136063;28;20048;-66
2023/03/06 08:31:54;;;;;;;11.02;5.72;;;5.70;99.90;;;;;;5159749;28;20026;-69
2023/03/06 08:34:25;;;;;;;9.27;5.32;;;5.60;99.90;;;;;;5155689;28;20171;-68
2023/03/06 08:37:00;;;;;;;11.02;5.10;;;5.60;99.90;;;;;;5139960;28;20245;-66
2023/03/06 08:39:31;;;;;;;10.02;4.65;;;5.60;99.90;;;;;;5173881;28;20348;-69
2023/03/06 08:42:03;;;;;;;10.80;5.68;;;5.80;99.90;;;;;;5142093;28;20040;-68
2023/03/06 08:44:37;;;;;;;13.50;6.13;;;5.80;99.90;;;;;;5156491;28;20058;-69
2023/03/06 08:47:09;;;;;;;12.93;6.53;;;6.00;99.90;;;;;;5127640;28;20038;-66
2023/03/06 08:49:40;;;;;;;10.43;5.13;;;6.10;99.90;;;;;;5152718;28;20218;-67
2023/03/06 08:52:15;;;;;;;9.23;4.93;;;6.30;99.90;;;;;;5154306;28;20029;-69
2023/03/06 08:54:47;;;;;;;9.18;4.80;;;6.60;99.90;;;;;;5136072;28;20242;-66
2023/03/06 08:57:18;;;;;;;15.10;5.90;;;6.80;99.90;;;;;;5173202;28;20025;-71
2023/03/06 08:59:53;;;;;;;10.45;6.05;;;6.80;99.90;;;;;;5178839;28;20211;-67
2023/03/06 09:02:24;;;;;;;;;;;7.00;99.90;;;;;;5143665;28;20139;-68
2023/03/06 09:04:55;;;;;;;9.57;4.68;;;7.30;99.90;;;;;;5148933;28;20011;-68
2023/03/06 09:07:31;;;;;;;8.85;5.00;;;7.30;99.90;;;;;;5139839;28;20041;-66
2023/03/06 09:10:03;;;;;;;9.75;5.47;;;7.50;99.90;;;;;;5139476;28;20243;-68
2023/03/06 09:12:37;;;;;;;11.73;6.55;;;7.60;99.90;;;;;;5152233;28;20034;-67
2023/03/06 09:15:12;;;;;;;11.68;6.18;;;7.70;99.90;;;;;;5151916;28;20034;-68
2023/03/06 09:17:46;;;;;;;9.15;4.90;;;8.00;99.90;;;;;;5155758;28;20264;-67
2023/03/06 09:20:18;;;;;;;;;;;7.90;99.90;;;;;;5139336;28;20037;-68
2023/03/06 09:22:52;;;;;;;8.68;4.78;;;7.80;99.90;;;;;;5154064;28;20004;-67
2023/03/06 09:25:25;;;;;;;7.85;4.53;;;7.90;99.90;;;;;;5150383;28;20187;-66
2023/03/06 09:27:56;;;;;;;8.52;4.88;;;7.80;99.90;;;;;;5178433;28;20046;-66
2023/03/06 09:30:27;;;;;;;10.80;4.70;;;8.00;99.90;;;;;;5150413;28;20041;-65
2023/03/06 09:33:01;;;;;;;11.43;5.53;;;7.70;99.90;;;;;;5157704;28;20234;-68
2023/03/06 09:35:32;;;;;;;12.18;4.95;;;7.70;99.90;;;;;;5133433;28;20038;-68
2023/03/06 09:38:04;;;;;;;9.43;5.25;;;7.70;99.90;;;;;;5133614;28;20227;-67
2023/03/06 09:41:02;;;;;;;10.35;4.55;;;7.70;99.90;;;;;;5152409;28;20046;-68
2023/03/06 09:43:42;;;;;;;9.07;4.53;;;7.60;99.90;;;;;;5146769;28;20133;-67
2023/03/06 09:47:10;;;;;;;8.77;4.47;;;7.60;99.90;;;;;;5166510;28;20510;-67
2023/03/06 09:50:10;;;;;;;9.82;4.82;;;7.60;99.90;;;;;;5154085;28;20329;-70
2023/03/06 09:52:54;;;;;;;9.07;4.97;;;7.70;99.90;;;;;;5168672;28;20068;-70
2023/03/06 09:55:30;;;;;;;7.60;5.15;;;8.00;99.90;;;;;;5133389;28;20485;-69
2023/03/06 09:58:15;;;;;;;8.55;4.50;;;7.90;99.90;;;;;;5162851;28;20029;-70
2023/03/06 10:01:00;;;;;;;9.73;4.57;;;7.80;99.90;;;;;;5155358;28;20042;-69
2023/03/06 10:03:47;;;;;;;10.23;4.93;;;7.90;99.90;;;;;;5130408;28;20198;-69
2023/03/06 10:06:33;;;;;;;10.50;4.85;;;8.00;99.90;;;;;;5167692;28;20218;-65
2023/03/06 10:09:27;;;;;;;8.23;5.18;;;8.20;99.90;;;;;;5149819;28;20038;-67
2023/03/06 10:12:20;;;;;;;8.57;5.15;;;8.40;99.90;;;;;;5161596;28;20446;-72
2023/03/06 10:15:21;;;;;;;11.13;5.80;;;8.10;99.90;;;;;;5149620;28;20042;-68
2023/03/06 10:17:53;;;;;;;13.07;5.60;;;8.20;99.90;;;;;;5161142;28;20123;-67
2023/03/06 10:20:45;;;;;;;9.15;5.88;;;8.30;99.90;;;;;;5148687;28;20042;-68
2023/03/06 10:23:51;;;;;;;10.48;5.40;;;8.50;99.90;;;;;;5142200;28;20199;-69
2023/03/06 10:26:28;;;;;;;10.27;5.63;;;8.50;99.90;;;;;;5169388;28;20038;-66
2023/03/06 10:29:12;;;;;;;10.25;5.35;;;8.60;99.90;;;;;;5163859;28;20044;-67
2023/03/06 10:31:47;;;;;;;10.63;5.70;;;8.50;99.90;;;;;;5150585;28;20034;-68
2023/03/06 10:34:36;;;;;;;10.75;5.95;;;8.60;99.90;;;;;;5167255;28;20198;-67
2023/03/06 10:37:18;;;;;;;12.50;5.75;;;8.50;99.90;;;;;;5170847;28;20033;-66
2023/03/06 10:40:15;;;;;;;9.27;4.95;;;8.50;99.90;;;;;;5171214;28;20033;-67
2023/03/06 10:42:46;;;;;;;10.10;5.82;;;8.80;99.90;;;;;;5172132;28;20180;-64
2023/03/06 10:45:18;;;;;;;12.65;6.57;;;8.40;99.90;;;;;;5168550;28;20045;-66
2023/03/06 10:48:09;;;;;;;11.52;5.63;;;8.50;99.90;;;;;;5154214;28;20049;-69
2023/03/06 10:50:40;;;;;;;8.85;5.07;;;8.40;99.90;;;;;;5171104;28;20062;-67
2023/03/06 10:53:33;;;;;;;10.23;5.63;;;8.60;99.90;;;;;;5170648;28;20026;-69
2023/03/06 10:56:08;;;;;;;11.20;5.60;;;8.80;99.90;;;;;;5169452;28;20046;-68
2023/03/06 10:58:39;;;;;;;9.93;5.85;;;9.20;99.90;;;;;;5152772;28;20093;-67
2023/03/06 11:01:23;;;;;;;9.95;6.00;;;9.80;99.90;;;;;;5165966;28;20045;-68
2023/03/06 11:04:32;;;;;;;12.57;5.78;;;10.00;99.90;;;;;;5133636;28;20038;-68
2023/03/06 11:07:20;;;;;;;9.55;5.53;;;10.20;99.90;;;;;;5128770;28;20239;-69
2023/03/06 11:10:02;;;;;;;12.07;5.13;;;10.00;99.90;;;;;;5150408;28;20060;-68
2023/03/06 11:12:40;;;;;;;9.23;5.72;;;10.30;99.90;;;;;;5122295;28;20042;-69
2023/03/06 11:15:21;;;;;;;11.30;5.70;;;10.30;99.90;;;;;;5140000;28;20048;-69
2023/03/06 11:17:56;;;;;;;8.70;5.00;;;10.40;99.90;;;;;;5159704;28;20049;-68
2023/03/06 11:20:53;;;;;;;10.88;6.45;;;10.20;99.90;;;;;;5138999;28;20528;-71
2023/03/06 11:23:45;;;;;;;9.68;6.13;;;10.10;99.90;;;;;;5152980;28;20050;-70
2023/03/06 11:26:36;;;;;;;10.50;5.30;;;9.90;99.90;;;;;;5121342;28;20350;-70
2023/03/06 11:29:34;;;;;;;10.20;5.82;;;10.10;99.90;;;;;;5154345;28;20050;-68
2023/03/06 11:32:11;;;;;;;11.48;5.30;;;10.30;99.90;;;;;;5169609;28;20037;-69
2023/03/06 11:34:56;;;;;;;10.93;5.75;;;10.20;99.90;;;;;;5140600;28;20054;-68
2023/03/06 11:37:33;;;;;;;9.57;5.85;;;10.10;99.90;;;;;;5162533;28;20047;-68
2023/03/06 11:40:11;;;;;;;12.40;6.10;;;9.90;99.90;;;;;;5194663;28;20045;-69
2023/03/06 11:43:30;;;;;;;10.45;5.35;;;9.40;99.90;;;;;;5180253;28;20041;-69
2023/03/06 11:46:21;;;;;;;9.25;5.70;;;9.40;99.90;;;;;;5140356;28;20034;-67
2023/03/06 11:49:04;;;;;;;9.75;5.88;;;9.50;99.90;;;;;;5134141;28;20507;-68
2023/03/06 11:51:43;;;;;;;8.45;4.65;;;9.30;99.90;;;;;;5148587;28;20510;-67
2023/03/06 11:54:15;;;;;;;9.25;5.38;;;9.40;99.90;;;;;;5172911;28;20049;-67
2023/03/06 11:56:56;;;;;;;12.82;6.00;;;9.40;99.90;;;;;;5171737;28;20037;-69
2023/03/06 11:59:43;;;;;;;13.25;6.15;;;9.50;99.90;;;;;;5166467;28;20025;-67
2023/03/06 12:02:54;;;;;;;12.02;5.57;;;9.70;99.90;;;;;;5168349;28;20048;-68
2023/03/06 12:05:40;;;;;;;10.60;5.82;;;9.80;99.90;;;;;;5146310;28;20061;-67
2023/03/06 12:08:34;;;;;;;13.95;6.90;;;10.00;99.90;;;;;;5168516;28;20155;-69
2023/03/06 12:11:27;;;;;;;9.40;5.10;;;10.20;99.90;;;;;;5171959;28;20139;-68
2023/03/06 12:14:32;;;;;;;10.43;5.93;;;10.50;99.90;;;;;;5164168;28;20048;-71
2023/03/06 12:17:09;;;;;;;12.85;6.00;;;10.70;99.90;;;;;;5171016;28;20026;-69
2023/03/06 12:20:32;;;;;;;9.00;5.70;;;9.90;99.90;;;;;;5139805;28;20044;-68
2023/03/06 12:23:54;;;;;;;13.10;6.22;;;9.80;99.90;;;;;;5152832;28;20056;-70
2023/03/06 12:26:44;;;;;;;15.63;6.72;;;9.80;99.90;;;;;;5172658;28;20037;-68
2023/03/06 12:29:40;;;;;;;10.00;6.00;;;9.80;99.90;;;;;;5165200;28;20055;-68
2023/03/06 12:32:35;;;;;;;10.30;6.03;;;9.70;99.90;;;;;;5172488;28;20036;-66
2023/03/06 12:35:50;;;;;;;12.00;6.40;;;9.60;99.90;;;;;;5168344;28;20534;-69
2023/03/06 12:38:27;;;;;;;11.07;5.72;;;9.60;99.90;;;;;;5167354;28;20045;-67
2023/03/06 12:41:03;;;;;;;12.43;6.38;;;9.80;99.90;;;;;;5160451;28;20055;-69
2023/03/06 12:43:50;;;;;;;9.40;5.90;;;10.20;99.90;;;;;;5155754;28;20057;-69
2023/03/06 12:46:27;;;;;;;13.93;7.15;;;10.60;99.90;;;;;;5142808;28;20050;-70
2023/03/06 12:49:37;;;;;;;10.45;6.55;;;11.10;99.90;;;;;;5156540;28;20042;-66
2023/03/06 12:52:20;;;;;;;9.18;5.20;;;11.30;99.90;;;;;;5144037;28;20406;-68
2023/03/06 12:54:57;;;;;;;10.65;5.88;;;11.40;99.90;;;;;;5156180;28;20037;-68
2023/03/06 12:57:29;;;;;;;12.00;7.13;;;10.90;99.90;;;;;;5156401;28;20061;-68
2023/03/06 13:00:04;;;;;;;12.38;6.50;;;10.70;99.90;;;;;;5142803;28;20041;-67
2023/03/06 13:03:01;;;;;;;10.23;7.03;;;10.50;99.90;;;;;;5167796;28;20034;-68
2023/03/06 13:06:03;;;;;;;11.35;6.63;;;10.90;99.90;;;;;;5147515;28;20063;-68
2023/03/06 13:09:22;;;;;;;13.25;6.53;;;11.70;99.90;;;;;;5151262;28;20046;-69
2023/03/06 13:12:36;;;;;;;12.15;6.68;;;12.00;99.90;;;;;;5151103;28;20373;-66
2023/03/06 13:15:40;;;;;;;14.40;6.35;;;11.10;99.90;;;;;;5172828;28;20060;-68
2023/03/06 13:18:21;;;;;;;13.85;6.75;;;10.80;99.90;;;;;;5119249;28;20056;-68
2023/03/06 13:20:56;;;;;;;13.18;6.43;;;10.40;99.90;;;;;;5151043;28;20046;-67
2023/03/06 13:23:35;;;;;;;11.95;7.50;;;10.00;99.90;;;;;;5151316;28;20046;-69
2023/03/06 13:26:24;;;;;;;9.75;6.53;;;9.80;99.90;;;;;;5157008;28;20367;-68
2023/03/06 13:28:57;;;;;;;10.20;6.40;;;9.50;99.90;;;;;;5188658;28;20037;-68
2023/03/06 13:31:37;;;;;;;11.88;6.30;;;9.40;99.90;;;;;;5145791;28;20068;-69
2023/03/06 13:34:40;;;;;;;12.90;7.38;;;9.30;99.90;;;;;;5163041;28;20038;-70
2023/03/06 13:37:22;;;;;;;9.77;6.03;;;9.30;99.90;;;;;;5152267;28;20050;-67
2023/03/06 13:39:57;;;;;;;13.40;6.18;;;9.10;99.90;;;;;;5170663;28;20392;-67
2023/03/06 13:42:40;;;;;;;13.25;6.60;;;8.90;99.90;;;;;;5171125;28;20045;-69
2023/03/06 13:45:46;;;;;;;10.57;6.25;;;9.20;99.90;;;;;;5147507;28;20129;-68
2023/03/06 13:48:26;;;;;;;10.88;6.05;;;9.60;99.90;;;;;;5154782;28;20063;-68
2023/03/06 13:51:14;;;;;;;11.70;6.70;;;9.80;99.90;;;;;;5187164;28;20621;-69
2023/03/06 13:54:26;;;;;;;12.10;6.93;;;10.00;99.90;;;;;;5175595;28;20519;-71
2023/03/06 13:57:09;;;;;;;13.45;6.53;;;10.10;99.90;;;;;;5168788;28;20519;-68
2023/03/06 14:00:14;;;;;;;13.95;6.43;;;9.80;99.90;;;;;;5149545;28;20060;-66